Time;durP1;ratioP1;P1;durP2;ratioP2;P2;SDS_P1;SDS_P2;PMS_P1;PMS_P2;Temp;Humidity;BMP_temperature;BMP_pressure;BME280_temperature;BME280_humidity;BME280_pressure;Samples;Min_cycle;Max_cycle;Signal;HPM_P1;HPM_P2
2022/11/16 05:32:40;;;;;;;;;1.00;0.00;;;;;10.61;80.09;99569.44;4975599;28;45596;-75
2022/11/16 05:35:07;;;;;;;;;0.00;0.00;;;;;10.63;80.37;99556.78;4958318;28;45437;-75
2022/11/16 05:37:32;;;;;;;;;0.00;0.00;;;;;10.69;80.43;99563.56;4975927;28;45439;-76
2022/11/16 05:39:58;;;;;;;;;1.75;0.00;;;;;10.70;80.08;99556.41;4975957;28;45424;-76
2022/11/16 05:42:23;;;;;;;;;0.00;0.00;;;;;10.68;80.15;99548.44;4975694;28;45259;-78
2022/11/16 05:44:48;;;;;;;;;1.00;1.00;;;;;10.75;80.18;99556.94;4957814;28;45862;-76
2022/11/16 05:47:14;;;;;;;;;2.00;1.00;;;;;10.75;79.79;99556.94;4975497;28;45247;-76
2022/11/16 05:49:41;;;;;;;;;1.00;1.00;;;;;10.78;80.04;99562.97;4975870;28;45448;-76
2022/11/16 05:52:06;;;;;;;;;2.00;1.00;;;;;10.78;79.84;99559.44;4975175;28;45441;-75
2022/11/16 05:54:31;;;;;;;;;2.00;1.00;;;;;10.79;80.32;99567.38;4975179;28;45405;-77
2022/11/16 05:56:58;;;;;;;;;2.25;0.75;;;;;10.80;80.19;99566.38;4975618;28;45508;-76
2022/11/16 05:59:23;;;;;;;;;2.25;1.00;;;;;10.70;80.42;99534.94;4974591;28;45278;-77
2022/11/16 06:01:50;;;;;;;;;2.00;0.75;;;;;10.77;80.24;99545.16;4944989;28;46964;-75
2022/11/16 06:04:16;;;;;;;;;2.00;1.00;;;;;10.78;80.49;99549.56;4963137;28;45488;-77
2022/11/16 06:06:41;;;;;;;;;0.00;0.00;;;;;10.84;80.52;99562.56;4958152;28;45377;-77
2022/11/16 06:09:08;;;;;;;;;1.00;1.00;;;;;10.82;80.48;99567.16;4957926;28;46228;-78
2022/11/16 06:11:35;;;;;;;;;5.00;1.75;;;;;10.79;80.80;99570.06;4961005;28;45290;-78
2022/11/16 06:14:00;;;;;;;;;1.00;1.00;;;;;10.73;80.80;99556.16;4975462;28;45431;-75
2022/11/16 06:16:25;;;;;;;;;0.25;0.25;;;;;10.68;80.89;99556.50;4975151;28;45714;-78
2022/11/16 06:18:51;;;;;;;;;1.00;1.00;;;;;10.79;80.76;99556.66;4975366;28;45353;-75
2022/11/16 06:21:18;;;;;;;;;1.00;1.00;;;;;10.79;80.86;99555.78;4957513;28;47849;-78
2022/11/16 06:23:44;;;;;;;;;0.25;0.25;;;;;10.71;80.16;99536.66;4954517;28;45374;-80
2022/11/16 06:26:10;;;;;;;;;1.00;1.00;;;;;10.87;80.49;99557.00;4969965;28;45428;-74
2022/11/16 06:28:36;;;;;;;;;1.75;1.75;;;;;10.92;80.43;99570.97;4975197;28;45507;-76
2022/11/16 06:31:01;;;;;;;;;0.75;0.75;;;;;10.90;80.42;99567.50;4974896;28;46731;-73
2022/11/16 06:33:27;;;;;;;;;3.50;2.00;;;;;10.83;80.21;99546.56;4974823;28;45448;-74
2022/11/16 06:35:53;;;;;;;;;12.00;12.00;;;;;10.76;80.77;99539.91;4975477;28;45489;-76
2022/11/16 06:38:19;;;;;;;;;1.00;1.00;;;;;10.83;80.52;99550.13;4978445;28;45296;-76
2022/11/16 06:40:48;;;;;;;;;1.00;1.00;;;;;10.87;80.28;99559.69;4979447;28;45940;-75
2022/11/16 06:43:14;;;;;;;;;2.00;1.25;;;;;10.79;80.27;99553.13;4978775;28;45395;-74
2022/11/16 06:45:40;;;;;;;;;1.00;1.00;;;;;10.72;79.88;99531.19;4960638;28;45373;-75
2022/11/16 06:48:05;;;;;;;;;2.00;2.00;;;;;10.70;80.13;99524.22;4960564;28;46655;-76
2022/11/16 06:50:31;;;;;;;;;2.50;1.00;;;;;10.90;80.15;99543.38;4977912;28;45373;-72
2022/11/16 06:52:59;;;;;;;;;1.00;1.00;;;;;10.80;80.04;99528.84;4978888;28;45402;-75
2022/11/16 06:55:25;;;;;;;;;1.00;1.00;;;;;10.75;80.07;99528.31;4978262;28;45393;-73
2022/11/16 06:57:51;;;;;;;;;2.75;2.00;;;;;10.88;80.04;99549.81;4978594;28;45460;-71
2022/11/16 07:00:19;;;;;;;;;4.50;2.00;;;;;10.74;79.71;99523.91;4977872;28;45476;-77
2022/11/16 07:02:44;;;;;;;;;2.00;2.00;;;;;10.92;80.00;99551.31;4958301;28;45544;-72
2022/11/16 07:05:10;;;;;;;;;1.75;1.00;;;;;10.95;79.69;99551.13;4978081;28;45371;-72
2022/11/16 07:07:35;;;;;;;;;2.00;2.00;;;;;10.90;80.12;99543.38;4975534;28;45385;-71
2022/11/16 07:10:01;;;;;;;;;2.00;2.00;;;;;10.88;80.04;99548.00;4944105;28;47000;-73
2022/11/16 07:12:26;;;;;;;;;1.25;1.25;;;;;10.96;80.04;99563.59;4980288;28;45420;-74
2022/11/16 07:14:51;;;;;;;;;1.00;1.00;;;;;10.95;80.14;99560.03;4982273;28;45404;-73
2022/11/16 07:17:17;;;;;;;;;2.50;2.25;;;;;10.95;79.85;99553.81;4982261;28;45323;-73
2022/11/16 07:19:43;;;;;;;;;2.50;2.50;;;;;11.04;79.61;99565.75;4981756;28;45824;-73
2022/11/16 07:22:08;;;;;;;;;5.00;2.00;;;;;10.98;80.26;99567.88;4982906;28;45242;-72
2022/11/16 07:24:34;;;;;;;;;2.75;2.00;;;;;11.06;79.85;99567.34;4980804;28;45239;-73
2022/11/16 07:26:59;;;;;;;;;4.25;3.00;;;;;11.10;79.75;99574.25;4977711;28;45204;-73
2022/11/16 07:29:24;;;;;;;;;4.50;3.00;;;;;11.06;79.96;99561.16;4977600;28;46179;-73
2022/11/16 07:31:50;;;;;;;;;3.50;2.00;;;;;11.00;80.22;99555.22;4960039;28;45521;-71
2022/11/16 07:34:15;;;;;;;;;1.50;1.50;;;;;10.94;80.13;99538.69;4977340;28;45319;-73
2022/11/16 07:36:41;;;;;;;;;3.00;1.25;;;;;11.14;80.02;99564.19;4977854;28;45274;-72
2022/11/16 07:39:09;;;;;;;;;4.50;3.00;;;;;11.14;80.29;99565.06;4977454;28;46754;-73
2022/11/16 07:41:34;;;;;;;;;4.00;2.25;;;;;11.10;79.99;99555.47;4977528;28;45302;-73
2022/11/16 07:44:00;;;;;;;;;4.00;3.00;;;;;11.19;80.34;99570.94;4975560;28;45417;-71
2022/11/16 07:46:25;;;;;;;;;3.25;2.75;;;;;11.16;80.46;99567.59;4976213;28;45417;-74
2022/11/16 07:48:51;;;;;;;;;4.00;3.00;;;;;11.24;80.43;99562.56;4976284;28;45401;-72
2022/11/16 07:51:17;;;;;;;;;3.00;3.00;;;;;11.14;80.59;99540.91;4959814;28;45354;-72
2022/11/16 07:53:43;;;;;;;;;6.50;3.50;;;;;11.25;80.17;99551.75;4955644;28;45403;-74
2022/11/16 07:56:10;;;;;;;;;4.25;4.25;;;;;11.28;80.21;99553.38;4977391;28;45306;-73
2022/11/16 07:58:36;;;;;;;;;4.00;3.00;;;;;11.34;80.33;99559.19;4977057;28;46555;-73
2022/11/16 08:01:03;;;;;;;;;6.50;3.50;;;;;11.33;80.33;99562.81;4977406;28;45430;-73
2022/11/16 08:03:29;;;;;;;;;3.50;3.50;;;;;11.29;81.01;99569.38;4976686;28;45474;-73
2022/11/16 08:06:04;;;;;;;;;5.00;3.00;;;;;11.33;80.84;99578.06;4976807;28;45584;-73
2022/11/16 08:08:31;;;;;;;;;3.00;3.00;;;;;11.28;80.81;99553.38;4977104;28;46106;-73
2022/11/16 08:11:10;;;;;;;;;3.00;3.00;;;;;11.32;81.16;99558.41;4977304;28;45354;-72
2022/11/16 08:13:37;;;;;;;;;3.50;3.00;;;;;11.31;81.57;99561.22;4976883;28;45559;-72
2022/11/16 08:16:09;;;;;;;;;4.25;3.75;;;;;11.19;81.14;99537.91;4977324;28;45307;-72
2022/11/16 08:18:36;;;;;;;;;3.00;3.00;;;;;11.42;81.58;99566.72;4976835;28;46296;-72
2022/11/16 08:21:03;;;;;;;;;5.50;4.00;;;;;11.50;81.24;99567.03;4976514;28;45506;-71
2022/11/16 08:23:30;;;;;;;;;2.00;2.00;;;;;11.48;81.38;99569.00;4976089;28;45403;-73
2022/11/16 08:26:09;;;;;;;;;2.75;2.75;;;;;11.56;81.14;99571.16;4976585;28;45331;-73
2022/11/16 08:28:35;;;;;;;;;1.25;1.25;;;;;11.55;80.92;99556.00;4964302;28;45361;-72
2022/11/16 08:31:07;;;;;;;;;5.50;3.00;;;;;11.63;80.72;99565.25;4976824;28;45409;-73
2022/11/16 08:33:33;;;;;;;;;5.00;3.00;;;;;11.70;80.12;99565.69;4976732;28;45373;-72
2022/11/16 08:36:05;;;;;;;;;3.00;3.00;;;;;11.58;80.41;99543.22;4976838;28;45240;-73
2022/11/16 08:38:31;;;;;;;;;5.00;4.00;;;;;11.74;80.05;99562.69;4976978;28;45991;-72
2022/11/16 08:40:56;;;;;;;;;3.50;2.00;;;;;11.79;80.65;99565.06;4976711;28;45518;-74
2022/11/16 08:43:22;;;;;;;;;3.00;1.25;;;;;11.79;80.49;99565.06;4968619;28;45318;-72
2022/11/16 08:45:48;;;;;;;;;5.00;2.75;;;;;11.74;80.73;99570.75;4953856;28;45369;-71
2022/11/16 08:48:14;;;;;;;;;2.50;1.25;;;;;11.68;80.95;99552.34;4954199;28;45512;-74
2022/11/16 08:50:39;;;;;;;;;1.75;1.75;;;;;11.70;81.15;99563.84;4954900;28;45370;-71
2022/11/16 08:53:05;;;;;;;;;3.75;3.00;;;;;11.63;81.15;99546.47;4956346;28;45480;-72
2022/11/16 08:55:32;;;;;;;;;4.00;2.75;;;;;11.81;80.96;99551.56;4956869;28;45502;-73
2022/11/16 08:57:57;;;;;;;;;1.00;1.00;;;;;11.67;81.08;99530.97;4957236;28;45291;-73
2022/11/16 09:00:22;;;;;;;;;2.75;1.00;;;;;11.93;80.86;99547.97;4956394;28;45519;-73
2022/11/16 09:02:48;;;;;;;;;4.50;2.00;;;;;11.87;81.11;99532.31;4957497;28;46020;-73
2022/11/16 09:05:14;;;;;;;;;2.00;2.00;;;;;11.86;80.94;99528.75;4957119;28;45401;-73
2022/11/16 09:07:42;;;;;;;;;6.00;2.00;;;;;12.04;81.11;99553.47;4957291;28;45329;-73
2022/11/16 09:10:08;;;;;;;;;4.50;3.00;;;;;12.08;80.79;99544.22;4958624;28;45283;-73
2022/11/16 09:12:35;;;;;;;;;4.50;3.00;;;;;12.09;80.06;99535.19;4976770;28;45560;-73
2022/11/16 09:15:00;;;;;;;;;4.50;4.50;;;;;12.12;80.06;99545.72;4958993;28;45260;-71
2022/11/16 09:17:26;;;;;;;;;4.75;1.75;;;;;11.91;80.11;99515.88;4977127;28;46102;-72
2022/11/16 09:19:51;;;;;;;;;3.50;2.25;;;;;12.16;79.70;99549.94;4979603;28;45724;-73
2022/11/16 09:22:17;;;;;;;;;4.75;2.00;;;;;12.16;79.69;99541.00;4980189;28;45341;-73
2022/11/16 09:24:42;;;;;;;;;3.25;2.00;;;;;12.21;79.59;99537.00;4979439;28;45353;-74
2022/11/16 09:27:07;;;;;;;;;3.25;1.50;;;;;12.32;79.14;99542.47;4959137;28;47088;-72
2022/11/16 09:29:33;;;;;;;;;3.25;1.00;;;;;12.37;79.13;99536.75;4975960;28;45409;-72
2022/11/16 09:31:58;;;;;;;;;1.00;1.00;;;;;12.33;79.13;99544.19;4975820;28;45440;-74
2022/11/16 09:34:24;;;;;;;;;2.00;1.25;;;;;12.37;79.26;99534.94;4975718;28;45404;-73
2022/11/16 09:36:49;;;;;;;;;1.50;0.00;;;;;12.39;79.00;99533.00;4976273;28;45410;-72
2022/11/16 09:39:15;;;;;;;;;2.75;2.75;;;;;12.33;79.02;99524.53;4975989;28;45314;-73
2022/11/16 09:42:15;;;;;;;;;2.00;2.00;;;;;12.43;78.91;99536.31;4958532;28;45408;-73
2022/11/16 09:45:07;;;;;;;;;1.00;1.00;;;;;12.44;79.10;99538.03;4976475;28;45585;-71
2022/11/16 09:47:48;;;;;;;;;2.00;2.00;;;;;12.52;79.00;99532.94;4976585;28;46092;-72
2022/11/16 09:50:25;;;;;;;;;0.75;0.75;;;;;12.57;78.41;99519.19;4959020;28;45725;-72
2022/11/16 09:52:57;;;;;;;;;4.25;3.00;;;;;12.53;78.25;99515.84;4976400;28;45356;-72
2022/11/16 09:55:47;;;;;;;;;4.00;2.75;;;;;12.47;79.20;99530.59;4958412;28;46664;-74
2022/11/16 09:58:26;;;;;;;;;2.25;1.00;;;;;12.50;78.64;99516.94;4965896;28;45285;-72
2022/11/16 10:01:14;;;;;;;;;4.00;2.00;;;;;12.54;78.40;99511.34;4975141;28;45375;-72
2022/11/16 10:03:44;;;;;;;;;1.25;1.00;;;;;12.59;78.45;99506.50;4975547;28;45398;-71
2022/11/16 10:06:19;;;;;;;;;3.00;2.00;;;;;12.67;77.76;99502.28;4975483;28;45243;-73
2022/11/16 10:08:52;;;;;;;;;0.00;0.00;;;;;12.66;77.72;99505.94;4975291;28;45519;-73
2022/11/16 10:11:39;;;;;;;;;2.00;2.00;;;;;12.74;77.21;99499.97;4974399;28;45274;-73
2022/11/16 10:14:40;;;;;;;;;1.00;1.00;;;;;12.79;76.66;99520.16;4963415;28;45526;-75
2022/11/16 10:17:21;;;;;;;;;1.75;1.00;;;;;12.83;77.11;99527.03;4957563;28;45408;-72
2022/11/16 10:20:09;;;;;;;;;3.50;1.75;;;;;12.89;76.01;99539.16;4974964;28;46235;-74
2022/11/16 10:22:49;;;;;;;;;1.50;0.00;;;;;12.99;76.10;99542.91;4936685;28;45398;-72
2022/11/16 10:25:21;;;;;;;;;1.25;0.00;;;;;12.87;75.48;99504.31;4975145;28;45403;-72
2022/11/16 10:28:12;;;;;;;;;4.00;1.00;;;;;13.12;74.74;99530.22;4974972;28;45519;-73
2022/11/16 10:30:51;;;;;;;;;1.00;1.00;;;;;13.14;74.12;99528.31;4974430;28;46307;-72
2022/11/16 10:33:20;;;;;;;;;0.75;0.00;;;;;13.15;73.96;99521.97;4974802;28;45200;-73
2022/11/16 10:35:52;;;;;;;;;1.75;1.00;;;;;13.30;73.81;99538.78;4975158;28;45424;-74
2022/11/16 10:38:26;;;;;;;;;1.50;0.75;;;;;13.33;73.60;99535.00;4958270;28;45339;-72
2022/11/16 10:40:56;;;;;;;;;2.00;1.00;;;;;13.38;73.67;99533.66;4975093;28;46189;-73
2022/11/16 10:43:28;;;;;;;;;3.75;1.00;;;;;13.44;73.13;99514.31;4974856;28;45458;-73
2022/11/16 10:46:15;;;;;;;;;4.00;1.00;;;;;13.52;72.29;99524.53;4975132;28;45314;-72
2022/11/16 10:49:07;;;;;;;;;0.75;0.75;;;;;13.55;72.60;99521.59;4974972;28;45590;-74
2022/11/16 10:51:32;;;;;;;;;1.00;1.00;;;;;13.51;72.49;99502.13;4971012;28;45292;-72
2022/11/16 10:53:58;;;;;;;;;5.00;1.75;;;;;13.53;71.58;99493.91;4974867;28;45324;-73
2022/11/16 10:56:36;;;;;;;;;1.00;1.00;;;;;13.61;71.66;99492.34;4975077;28;45358;-72
2022/11/16 10:59:04;;;;;;;;;2.25;1.00;;;;;13.77;71.69;99499.25;4974683;28;45892;-74
2022/11/16 11:01:42;;;;;;;;;1.25;1.25;;;;;13.79;71.21;99484.66;4974959;28;45455;-72
2022/11/16 11:04:23;;;;;;;;;1.00;1.00;;;;;13.74;70.72;99486.84;4962456;28;45356;-73
2022/11/16 11:06:51;;;;;;;;;2.00;1.00;;;;;14.03;70.14;99477.31;4979096;28;45452;-73
2022/11/16 11:09:25;;;;;;;;;2.00;2.00;;;;;14.28;69.30;99486.13;4979316;28;45634;-73
2022/11/16 11:15:10;;;;;;;;;3.00;1.00;;;;;14.55;68.65;99481.19;4977786;28;45506;-73
2022/11/16 11:17:46;;;;;;;;;1.00;1.00;;;;;14.58;66.93;99486.34;4962435;28;45473;-71
2022/11/16 11:20:14;;;;;;;;;2.50;1.50;;;;;14.66;67.48;99488.41;4974367;28;45294;-74
2022/11/16 11:23:05;;;;;;;;;1.75;1.75;;;;;14.44;67.61;99475.84;4974954;28;46424;-72
2022/11/16 11:25:37;;;;;;;;;2.75;2.00;;;;;14.39;67.92;99473.50;4966674;28;45318;-74
2022/11/16 11:28:06;;;;;;;;;2.00;2.00;;;;;14.30;68.32;99463.44;4977953;28;45625;-74
2022/11/16 11:30:32;;;;;;;;;2.50;2.25;;;;;14.33;68.18;99457.81;4977570;28;45575;-73
2022/11/16 11:32:58;;;;;;;;;3.00;1.00;;;;;14.30;67.24;99452.66;4977483;28;46008;-73
2022/11/16 11:35:30;;;;;;;;;2.75;1.00;;;;;14.51;68.03;99447.38;4978069;28;45615;-72
2022/11/16 11:37:59;;;;;;;;;1.00;1.00;;;;;14.87;67.17;99450.69;4977050;28;45293;-72
2022/11/16 11:40:26;;;;;;;;;1.00;1.00;;;;;15.05;65.57;99455.41;4976080;28;45550;-72
2022/11/16 11:42:53;;;;;;;;;4.50;3.00;;;;;15.13;65.64;99460.16;4975457;28;45507;-73
2022/11/16 11:45:22;;;;;;;;;3.00;2.00;;;;;15.02;65.53;99441.28;4974199;28;45452;-73
2022/11/16 11:47:55;;;;;;;;;3.75;2.75;;;;;15.11;65.13;99445.91;4956725;28;45505;-74
2022/11/16 11:50:48;;;;;;;;;2.00;2.00;;;;;15.13;65.01;99442.09;4974340;28;45307;-73
2022/11/16 11:53:34;;;;;;;;;3.25;2.00;;;;;15.03;65.04;99437.63;4975935;28;45465;-74
2022/11/16 11:55:59;;;;;;;;;1.00;1.00;;;;;14.98;64.84;99448.78;4973802;28;45511;-73
2022/11/16 11:58:29;;;;;;;;;1.75;1.75;;;;;14.90;64.57;99439.63;4976193;28;45639;-73
2022/11/16 12:00:55;;;;;;;;;1.00;1.00;;;;;14.84;64.51;99446.41;4973419;28;45435;-74
2022/11/16 12:03:29;;;;;;;;;2.25;1.50;;;;;14.76;65.17;99438.97;4975841;28;45278;-73
2022/11/16 12:06:06;;;;;;;;;2.00;1.00;;;;;14.81;64.50;99437.69;4976021;28;45435;-74
2022/11/16 12:08:44;;;;;;;;;2.25;1.00;;;;;14.76;64.74;99443.50;4974585;28;45322;-73
2022/11/16 12:11:23;;;;;;;;;3.00;1.25;;;;;14.65;65.40;99425.50;4975519;28;45500;-74
2022/11/16 12:14:16;;;;;;;;;1.00;1.00;;;;;14.73;65.13;99436.50;4967853;28;45385;-73
2022/11/16 12:17:03;;;;;;;;;4.00;1.00;;;;;14.79;64.66;99435.16;4973986;28;45605;-74
2022/11/16 12:19:58;;;;;;;;;2.00;2.00;;;;;14.79;65.05;99428.91;4973723;28;45319;-74
2022/11/16 12:22:35;;;;;;;;;1.00;1.00;;;;;14.72;65.35;99426.69;4972883;28;45509;-76
2022/11/16 12:25:23;;;;;;;;;2.25;2.25;;;;;14.69;65.57;99418.88;4970993;28;46117;-73
2022/11/16 12:28:17;;;;;;;;;3.25;3.25;;;;;14.71;65.34;99416.91;4971920;28;45310;-72
2022/11/16 12:31:09;;;;;;;;;0.25;0.25;;;;;14.69;65.27;99413.47;4957279;28;45580;-76
2022/11/16 12:33:37;;;;;;;;;4.00;2.25;;;;;14.64;65.10;99420.22;4965579;28;45586;-76
2022/11/16 12:36:26;;;;;;;;;2.00;2.00;;;;;14.63;65.69;99413.97;4975777;28;45351;-75
2022/11/16 12:39:04;;;;;;;;;2.00;2.00;;;;;14.67;65.78;99412.75;4976926;28;45459;-74
2022/11/16 12:42:01;;;;;;;;;3.00;2.00;;;;;14.65;65.48;99392.28;4977104;28;45527;-74
2022/11/16 12:45:01;;;;;;;;;1.50;1.50;;;;;14.67;65.53;99398.41;4976811;28;45356;-75
2022/11/16 12:47:51;;;;;;;;;1.25;0.50;;;;;14.66;65.46;99392.16;4976961;28;45485;-77
2022/11/16 12:50:19;;;;;;;;;2.25;1.75;;;;;14.75;65.85;99382.44;4980964;28;45504;-74
2022/11/16 12:53:06;;;;;;;;;3.00;3.00;;;;;14.78;65.36;99387.56;4982398;28;45248;-74
2022/11/16 12:56:05;;;;;;;;;2.00;2.00;;;;;14.75;64.99;99391.38;4981369;28;45149;-75
2022/11/16 12:58:42;;;;;;;;;2.25;2.25;;;;;14.65;65.34;99387.75;4980097;28;45351;-76
2022/11/16 13:01:34;;;;;;;;;1.75;1.75;;;;;14.67;65.38;99396.56;4976263;28;45310;-74
2022/11/16 13:04:06;;;;;;;;;2.50;2.00;;;;;14.66;65.34;99378.66;4976493;28;45403;-75
2022/11/16 13:06:37;;;;;;;;;1.75;0.00;;;;;14.65;65.54;99387.75;4975999;28;45477;-74
2022/11/16 13:09:18;;;;;;;;;4.00;2.00;;;;;14.65;65.57;99370.69;4976180;28;45467;-73
2022/11/16 13:11:49;;;;;;;;;2.50;1.75;;;;;14.63;65.67;99365.41;4975798;28;45402;-75
2022/11/16 13:14:20;;;;;;;;;3.00;3.00;;;;;14.38;65.41;99339.66;4975986;28;45409;-74
2022/11/16 13:16:47;;;;;;;;;3.00;2.50;;;;;14.52;66.12;99351.16;4975129;28;45495;-75
2022/11/16 13:19:16;;;;;;;;;3.50;3.00;;;;;14.59;66.15;99355.03;4947988;28;47142;-77
2022/11/16 13:22:03;;;;;;;;;2.00;0.75;;;;;14.64;65.90;99347.41;4973384;28;45455;-75
2022/11/16 13:24:39;;;;;;;;;2.50;1.00;;;;;14.61;66.42;99337.75;4976519;28;45442;-74
2022/11/16 13:27:16;;;;;;;;;4.50;3.00;;;;;14.59;66.61;99339.72;4976766;28;45565;-76
2022/11/16 13:29:59;;;;;;;;;2.00;2.00;;;;;14.61;66.56;99323.41;4976812;28;45353;-77
2022/11/16 13:33:09;;;;;;;;;0.00;0.00;;;;;14.57;67.02;99317.41;4974975;28;45561;-75
2022/11/16 13:35:37;;;;;;;;;1.50;1.00;;;;;14.58;66.95;99302.06;4944817;28;45525;-76
2022/11/16 13:38:02;;;;;;;;;3.00;2.00;;;;;14.53;67.14;99301.63;4974728;28;45540;-75
2022/11/16 13:40:32;;;;;;;;;3.00;3.00;;;;;14.63;67.61;99311.47;4955222;28;46358;-74
2022/11/16 13:43:09;;;;;;;;;4.00;3.00;;;;;14.65;67.08;99309.50;4957425;28;45204;-76
2022/11/16 13:45:50;;;;;;;;;2.25;2.25;;;;;14.68;67.54;99298.47;4956312;28;45175;-75
2022/11/16 13:48:34;;;;;;;;;6.00;1.50;;;;;14.69;67.40;99297.50;4970592;28;45438;-76
2022/11/16 13:51:02;;;;;;;;;3.50;2.75;;;;;14.66;67.81;99297.75;4956238;28;45353;-74
2022/11/16 13:53:36;;;;;;;;;2.00;2.00;;;;;14.58;67.54;99285.91;4956113;28;45271;-75
2022/11/16 13:56:04;;;;;;;;;2.00;1.75;;;;;14.64;67.90;99297.00;4971414;28;45390;-73
2022/11/16 13:58:32;;;;;;;;;1.75;1.25;;;;;14.63;67.52;99300.69;4955861;28;45541;-74
2022/11/16 14:01:13;;;;;;;;;2.75;2.75;;;;;14.55;68.23;99296.94;4956064;28;45566;-74
2022/11/16 14:03:45;;;;;;;;;1.00;1.00;;;;;14.51;68.25;99284.72;4955990;28;45381;-74
2022/11/16 14:06:22;;;;;;;;;3.25;1.00;;;;;14.48;68.88;99285.81;4970491;28;45371;-74
2022/11/16 14:08:58;;;;;;;;;1.25;1.25;;;;;14.38;69.63;99288.44;4955636;28;45258;-75
2022/11/16 14:11:30;;;;;;;;;1.50;1.50;;;;;14.37;70.27;99283.16;4967497;28;46185;-76
2022/11/16 14:13:56;;;;;;;;;2.25;1.25;;;;;14.32;70.90;99278.16;4963161;28;45396;-76
2022/11/16 14:16:21;;;;;;;;;3.25;2.00;;;;;14.31;71.57;99275.56;4975663;28;45485;-77
2022/11/16 14:18:46;;;;;;;;;0.75;0.00;;;;;14.31;71.33;99281.81;4976198;28;45409;-76
2022/11/16 14:21:40;;;;;;;;;4.00;3.00;;;;;14.28;72.01;99265.94;4975592;28;45233;-75
2022/11/16 14:24:32;;;;;;;;;3.25;1.00;;;;;14.24;72.50;99255.53;4975437;28;45414;-75
2022/11/16 14:27:31;;;;;;;;;3.50;2.50;;;;;14.09;72.91;99230.72;4976256;28;45292;-75
2022/11/16 14:30:23;;;;;;;;;1.00;1.00;;;;;14.23;73.20;99249.28;4980075;28;45445;-75
2022/11/16 14:32:52;;;;;;;;;3.50;2.00;;;;;14.13;73.76;99225.91;4980040;28;46385;-75
2022/11/16 14:35:37;;;;;;;;;2.25;2.25;;;;;14.17;74.25;99239.03;4980340;28;45388;-74
2022/11/16 14:38:40;;;;;;;;;2.75;2.75;;;;;14.14;74.46;99239.25;4980440;28;45303;-75
2022/11/16 14:41:17;;;;;;;;;4.50;2.00;;;;;14.08;75.81;99228.16;4975684;28;45706;-76
2022/11/16 14:43:46;;;;;;;;;1.00;1.00;;;;;14.06;75.64;99211.25;4975519;28;45388;-75
2022/11/16 14:46:22;;;;;;;;;4.75;2.25;;;;;14.05;76.10;99210.41;4975184;28;45234;-77
2022/11/16 14:48:48;;;;;;;;;8.25;2.25;;;;;13.95;76.20;99196.84;4975404;28;45565;-76
2022/11/16 14:51:23;;;;;;;;;6.25;3.00;;;;;14.00;76.79;99197.34;4975832;28;45434;-76
2022/11/16 14:53:54;;;;;;;;;3.75;2.00;;;;;13.96;77.11;99189.63;4975343;28;45551;-76
2022/11/16 14:56:19;;;;;;;;;6.50;6.50;;;;;13.91;77.51;99194.56;4975791;28;45435;-76
2022/11/16 14:58:51;;;;;;;;;7.00;2.00;;;;;13.86;78.15;99186.88;4976343;28;45415;-76
2022/11/16 15:01:19;;;;;;;;;4.50;2.00;;;;;13.82;78.37;99166.56;4979105;28;45202;-76
2022/11/16 15:03:52;;;;;;;;;8.00;4.00;;;;;13.55;78.03;99112.31;4979047;28;45418;-76
2022/11/16 15:06:19;;;;;;;;;2.75;2.75;;;;;13.82;78.33;99163.84;4978984;28;45323;-74
2022/11/16 15:08:50;;;;;;;;;2.25;2.25;;;;;13.79;78.85;99152.47;4978882;28;45607;-75
2022/11/16 15:11:24;;;;;;;;;3.75;3.00;;;;;13.64;79.24;99125.84;4979005;28;45301;-76
2022/11/16 15:13:50;;;;;;;;;7.00;4.00;;;;;13.79;78.72;99147.94;4979364;28;45409;-76
2022/11/16 15:16:18;;;;;;;;;3.50;3.50;;;;;13.71;78.83;99119.94;4979236;28;45571;-75
2022/11/16 15:19:00;;;;;;;;;2.00;2.00;;;;;13.72;79.04;99118.97;4979210;28;45282;-75
2022/11/16 15:21:26;;;;;;;;;3.75;3.75;;;;;13.70;79.20;99104.75;4979217;28;45324;-75
2022/11/16 15:23:51;;;;;;;;;3.25;3.25;;;;;13.70;79.17;99094.84;4980615;28;45396;-75
2022/11/16 15:26:21;;;;;;;;;4.00;2.75;;;;;13.77;79.42;99095.22;4979279;28;45480;-76
2022/11/16 15:28:48;;;;;;;;;3.00;3.00;;;;;13.73;79.46;99081.13;4979663;28;45268;-76
2022/11/16 15:31:14;;;;;;;;;1.75;1.75;;;;;13.70;79.92;99048.22;4978234;28;45493;-75
2022/11/16 15:33:44;;;;;;;;;2.75;1.00;;;;;13.75;79.89;99054.06;4960389;28;47276;-76
2022/11/16 15:36:36;;;;;;;;;4.25;4.25;;;;;13.77;80.12;99065.59;4978455;28;45667;-76
2022/11/16 15:39:04;;;;;;;;;2.00;2.00;;;;;13.68;79.46;99056.44;4978237;28;45377;-76
2022/11/16 15:41:29;;;;;;;;;4.25;3.00;;;;;13.59;80.33;99038.38;4978114;28;45404;-75
2022/11/16 15:43:57;;;;;;;;;5.00;3.75;;;;;13.63;80.22;99062.22;4977730;28;45533;-76
2022/11/16 15:46:30;;;;;;;;;4.25;2.00;;;;;13.61;80.46;99041.78;4978734;28;45468;-76
2022/11/16 15:48:57;;;;;;;;;3.00;3.00;;;;;13.64;80.22;99038.84;4962269;28;45411;-75
2022/11/16 15:51:23;;;;;;;;;2.00;2.00;;;;;13.46;80.64;99000.88;4960583;28;46715;-76
2022/11/16 15:53:51;;;;;;;;;2.00;2.00;;;;;13.50;80.80;99007.72;4977390;28;46109;-76
2022/11/16 15:56:26;;;;;;;;;2.75;2.75;;;;;13.56;81.34;99011.72;4976924;28;45924;-76
2022/11/16 15:58:53;;;;;;;;;1.25;1.25;;;;;13.51;81.28;98998.66;4977597;28;45380;-76
2022/11/16 16:01:19;;;;;;;;;4.25;2.50;;;;;13.55;81.50;99005.47;4956936;28;47639;-75
2022/11/16 16:03:56;;;;;;;;;2.25;2.00;;;;;13.56;81.61;98995.56;4973965;28;46112;-76
2022/11/16 16:06:42;;;;;;;;;2.75;2.75;;;;;13.57;80.88;98998.13;4977533;28;45330;-75
2022/11/16 16:09:19;;;;;;;;;3.25;2.00;;;;;13.50;81.07;98975.41;4976349;28;45429;-76
2022/11/16 16:11:44;;;;;;;;;5.50;4.00;;;;;13.50;81.31;98966.47;4977222;28;45338;-76
2022/11/16 16:14:27;;;;;;;;;6.50;2.25;;;;;13.60;81.81;98970.09;4976862;28;45470;-74
2022/11/16 16:16:55;;;;;;;;;2.75;2.25;;;;;13.49;81.57;98956.69;4961371;28;45433;-76
2022/11/16 16:19:45;;;;;;;;;4.00;4.00;;;;;13.49;81.74;98946.78;4960323;28;45329;-76
2022/11/16 16:22:25;;;;;;;;;3.00;3.00;;;;;13.52;81.65;98951.91;4952618;28;45543;-75
2022/11/16 16:24:50;;;;;;;;;9.00;4.00;;;;;13.54;81.94;98943.66;4961636;28;46317;-76
2022/11/16 16:27:21;;;;;;;;;3.75;3.00;;;;;13.50;82.61;98943.09;4982589;28;45286;-76
2022/11/16 16:29:57;;;;;;;;;5.25;3.75;;;;;13.52;82.73;98924.13;4977814;28;45362;-77
2022/11/16 16:32:30;;;;;;;;;2.50;2.25;;;;;13.45;82.09;98914.84;4976757;28;45474;-77
2022/11/16 16:34:58;;;;;;;;;4.00;4.00;;;;;13.52;82.82;98937.59;4977639;28;45439;-75
2022/11/16 16:37:26;;;;;;;;;6.25;3.25;;;;;13.47;82.76;98926.34;4961461;28;45452;-77
2022/11/16 16:39:51;;;;;;;;;1.75;1.50;;;;;13.37;83.98;98925.44;4977829;28;45511;-77
2022/11/16 16:42:18;;;;;;;;;6.00;4.25;;;;;13.35;83.67;98922.03;4977817;28;45375;-79
2022/11/16 16:44:46;;;;;;;;;9.75;5.00;;;;;13.42;83.98;98902.53;4977462;28;45534;-78
2022/11/16 16:47:12;;;;;;;;;3.00;3.00;;;;;13.40;83.51;98900.94;4977405;28;45265;-79
2022/11/16 16:49:37;;;;;;;;;3.00;3.00;;;;;13.43;83.90;98892.63;4978263;28;45380;-78
2022/11/16 16:52:04;;;;;;;;;3.50;3.00;;;;;13.41;83.56;98900.81;4977132;28;45531;-78
2022/11/16 16:54:29;;;;;;;;;4.75;4.00;;;;;13.35;84.37;98870.91;4977522;28;45376;-76
2022/11/16 16:56:56;;;;;;;;;2.00;1.00;;;;;13.27;83.52;98866.16;4977751;28;45418;-77
2022/11/16 16:59:22;;;;;;;;;8.25;5.75;;;;;13.25;83.90;98865.47;4961721;28;45414;-79
2022/11/16 17:01:49;;;;;;;;;2.00;2.00;;;;;13.29;83.86;98890.25;4979869;28;45335;-80
2022/11/16 17:04:18;;;;;;;;;3.00;3.00;;;;;13.31;84.24;98882.91;4956330;28;45661;-78
2022/11/16 17:06:44;;;;;;;;;5.25;4.00;;;;;13.25;84.38;98860.94;4973496;28;45384;-79
2022/11/16 17:09:10;;;;;;;;;7.00;4.50;;;;;13.27;84.75;98863.47;4976239;28;45409;-73
2022/11/16 17:11:36;;;;;;;;;5.50;2.75;;;;;13.29;84.89;98871.41;4975221;28;45510;-73
2022/11/16 17:14:04;;;;;;;;;4.25;2.00;;;;;13.22;85.33;98854.97;4975902;28;45693;-73
2022/11/16 17:16:32;;;;;;;;;5.50;4.00;;;;;13.17;85.73;98843.75;4976185;28;45252;-76
2022/11/16 17:18:57;;;;;;;;;4.00;4.00;;;;;13.17;85.74;98839.22;4976724;28;45470;-75
2022/11/16 17:21:23;;;;;;;;;6.75;3.50;;;;;13.12;85.03;98811.81;4975598;28;45479;-76
2022/11/16 17:23:48;;;;;;;;;6.00;3.50;;;;;13.10;85.50;98808.41;4958204;28;46761;-76
2022/11/16 17:26:14;;;;;;;;;7.00;3.25;;;;;13.14;84.98;98815.25;4975844;28;45318;-77
2022/11/16 17:28:40;;;;;;;;;3.00;3.00;;;;;13.09;85.42;98814.78;4958006;28;45529;-74
2022/11/16 17:31:07;;;;;;;;;3.00;3.00;;;;;13.14;85.56;98831.41;4975299;28;45494;-76